sensor_id;sensor_type;location;lat;lon;timestamp;P1;durP1;ratioP1;P2;durP2;ratioP2
36653;SDS011;22650;49.350;20.898;2023-12-04T00:00:28;565.60;;;527.78;;
36653;SDS011;22650;49.350;20.898;2023-12-04T00:03:02;549.05;;;508.00;;
36653;SDS011;22650;49.350;20.898;2023-12-04T00:05:36;555.85;;;519.10;;
36653;SDS011;22650;49.350;20.898;2023-12-04T00:08:09;541.08;;;503.80;;
36653;SDS011;22650;49.350;20.898;2023-12-04T00:10:43;488.10;;;455.27;;
36653;SDS011;22650;49.350;20.898;2023-12-04T00:13:17;535.53;;;500.05;;
36653;SDS011;22650;49.350;20.898;2023-12-04T00:15:52;448.48;;;420.67;;
36653;SDS011;22650;49.350;20.898;2023-12-04T00:18:25;527.55;;;494.92;;
36653;SDS011;22650;49.350;20.898;2023-12-04T00:20:59;437.13;;;409.48;;
36653;SDS011;22650;49.350;20.898;2023-12-04T00:23:32;510.45;;;477.92;;
36653;SDS011;22650;49.350;20.898;2023-12-04T00:26:06;505.02;;;473.15;;
36653;SDS011;22650;49.350;20.898;2023-12-04T00:28:41;303.77;;;283.55;;
36653;SDS011;22650;49.350;20.898;2023-12-04T00:31:15;290.25;;;269.80;;
36653;SDS011;22650;49.350;20.898;2023-12-04T00:33:49;226.85;;;209.57;;
36653;SDS011;22650;49.350;20.898;2023-12-04T00:36:23;449.08;;;418.63;;
36653;SDS011;22650;49.350;20.898;2023-12-04T00:38:56;477.63;;;445.35;;
36653;SDS011;22650;49.350;20.898;2023-12-04T00:41:30;489.80;;;457.88;;
36653;SDS011;22650;49.350;20.898;2023-12-04T00:44:03;417.27;;;391.25;;
36653;SDS011;22650;49.350;20.898;2023-12-04T00:46:38;513.53;;;481.45;;
36653;SDS011;22650;49.350;20.898;2023-12-04T00:49:12;512.22;;;480.70;;
36653;SDS011;22650;49.350;20.898;2023-12-04T00:51:46;501.52;;;470.45;;
36653;SDS011;22650;49.350;20.898;2023-12-04T00:54:19;519.17;;;484.10;;
36653;SDS011;22650;49.350;20.898;2023-12-04T00:56:53;341.83;;;322.08;;
36653;SDS011;22650;49.350;20.898;2023-12-04T00:59:26;427.52;;;401.10;;
36653;SDS011;22650;49.350;20.898;2023-12-04T01:02:01;485.15;;;457.13;;
36653;SDS011;22650;49.350;20.898;2023-12-04T01:04:35;267.38;;;250.15;;
36653;SDS011;22650;49.350;20.898;2023-12-04T01:07:12;459.52;;;430.60;;
36653;SDS011;22650;49.350;20.898;2023-12-04T01:09:46;442.13;;;417.13;;
36653;SDS011;22650;49.350;20.898;2023-12-04T01:12:19;446.70;;;420.20;;
36653;SDS011;22650;49.350;20.898;2023-12-04T01:14:53;353.13;;;331.17;;
36653;SDS011;22650;49.350;20.898;2023-12-04T01:17:28;469.13;;;439.40;;
36653;SDS011;22650;49.350;20.898;2023-12-04T01:20:03;468.15;;;438.88;;
36653;SDS011;22650;49.350;20.898;2023-12-04T01:22:38;488.15;;;457.33;;
36653;SDS011;22650;49.350;20.898;2023-12-04T01:25:11;364.92;;;341.70;;
36653;SDS011;22650;49.350;20.898;2023-12-04T01:27:45;227.40;;;213.95;;
36653;SDS011;22650;49.350;20.898;2023-12-04T01:30:18;210.25;;;197.93;;
36653;SDS011;22650;49.350;20.898;2023-12-04T01:32:53;302.02;;;284.55;;
36653;SDS011;22650;49.350;20.898;2023-12-04T01:35:27;294.92;;;277.92;;
36653;SDS011;22650;49.350;20.898;2023-12-04T01:38:01;436.17;;;407.83;;
36653;SDS011;22650;49.350;20.898;2023-12-04T01:40:34;488.30;;;457.30;;
36653;SDS011;22650;49.350;20.898;2023-12-04T01:43:08;453.95;;;426.33;;
36653;SDS011;22650;49.350;20.898;2023-12-04T01:45:42;352.40;;;329.80;;
36653;SDS011;22650;49.350;20.898;2023-12-04T01:48:17;250.13;;;234.65;;
36653;SDS011;22650;49.350;20.898;2023-12-04T01:50:51;252.00;;;235.85;;
36653;SDS011;22650;49.350;20.898;2023-12-04T01:53:25;366.50;;;344.95;;
36653;SDS011;22650;49.350;20.898;2023-12-04T01:55:58;267.42;;;252.10;;
36653;SDS011;22650;49.350;20.898;2023-12-04T01:58:32;362.95;;;340.95;;
36653;SDS011;22650;49.350;20.898;2023-12-04T02:01:06;342.00;;;322.98;;
36653;SDS011;22650;49.350;20.898;2023-12-04T02:03:41;307.45;;;289.38;;
36653;SDS011;22650;49.350;20.898;2023-12-04T02:06:16;172.70;;;161.52;;
36653;SDS011;22650;49.350;20.898;2023-12-04T02:08:51;402.75;;;377.77;;
36653;SDS011;22650;49.350;20.898;2023-12-04T02:11:25;358.60;;;336.08;;
36653;SDS011;22650;49.350;20.898;2023-12-04T02:13:58;449.88;;;422.05;;
36653;SDS011;22650;49.350;20.898;2023-12-04T02:16:32;372.27;;;349.70;;
36653;SDS011;22650;49.350;20.898;2023-12-04T02:19:14;236.63;;;222.45;;
36653;SDS011;22650;49.350;20.898;2023-12-04T02:21:48;192.50;;;179.27;;
36653;SDS011;22650;49.350;20.898;2023-12-04T02:24:23;162.57;;;152.63;;
36653;SDS011;22650;49.350;20.898;2023-12-04T02:26:58;127.65;;;119.22;;
36653;SDS011;22650;49.350;20.898;2023-12-04T02:29:38;96.45;;;89.80;;
36653;SDS011;22650;49.350;20.898;2023-12-04T02:32:18;136.80;;;128.50;;
36653;SDS011;22650;49.350;20.898;2023-12-04T02:34:53;106.65;;;98.78;;
36653;SDS011;22650;49.350;20.898;2023-12-04T02:37:28;113.05;;;104.95;;
36653;SDS011;22650;49.350;20.898;2023-12-04T02:40:04;131.80;;;123.75;;
36653;SDS011;22650;49.350;20.898;2023-12-04T02:42:39;140.25;;;130.10;;
36653;SDS011;22650;49.350;20.898;2023-12-04T02:45:12;165.55;;;154.50;;
36653;SDS011;22650;49.350;20.898;2023-12-04T02:47:46;176.88;;;165.65;;
36653;SDS011;22650;49.350;20.898;2023-12-04T02:50:19;311.35;;;290.23;;
36653;SDS011;22650;49.350;20.898;2023-12-04T02:52:53;252.82;;;235.55;;
36653;SDS011;22650;49.350;20.898;2023-12-04T02:55:28;233.60;;;217.70;;
36653;SDS011;22650;49.350;20.898;2023-12-04T02:58:02;317.77;;;296.95;;
36653;SDS011;22650;49.350;20.898;2023-12-04T03:00:35;351.58;;;329.58;;
36653;SDS011;22650;49.350;20.898;2023-12-04T03:03:09;374.85;;;352.00;;
36653;SDS011;22650;49.350;20.898;2023-12-04T03:05:42;240.35;;;223.93;;
36653;SDS011;22650;49.350;20.898;2023-12-04T03:08:16;326.83;;;305.25;;
36653;SDS011;22650;49.350;20.898;2023-12-04T03:10:51;283.35;;;265.38;;
36653;SDS011;22650;49.350;20.898;2023-12-04T03:13:24;230.02;;;214.35;;
36653;SDS011;22650;49.350;20.898;2023-12-04T03:15:58;283.33;;;261.98;;
36653;SDS011;22650;49.350;20.898;2023-12-04T03:18:32;283.58;;;263.55;;
36653;SDS011;22650;49.350;20.898;2023-12-04T03:21:06;266.25;;;245.90;;
36653;SDS011;22650;49.350;20.898;2023-12-04T03:23:40;280.20;;;261.63;;
36653;SDS011;22650;49.350;20.898;2023-12-04T03:26:15;270.77;;;253.60;;
36653;SDS011;22650;49.350;20.898;2023-12-04T03:28:48;268.10;;;250.15;;
36653;SDS011;22650;49.350;20.898;2023-12-04T03:31:22;263.80;;;246.18;;
36653;SDS011;22650;49.350;20.898;2023-12-04T03:33:56;269.48;;;251.30;;
36653;SDS011;22650;49.350;20.898;2023-12-04T03:36:30;275.75;;;256.80;;
36653;SDS011;22650;49.350;20.898;2023-12-04T03:39:04;340.42;;;316.58;;
36653;SDS011;22650;49.350;20.898;2023-12-04T03:41:39;233.35;;;216.73;;
36653;SDS011;22650;49.350;20.898;2023-12-04T03:44:12;299.58;;;280.38;;
36653;SDS011;22650;49.350;20.898;2023-12-04T03:46:46;241.45;;;226.43;;
36653;SDS011;22650;49.350;20.898;2023-12-04T03:49:19;290.92;;;271.77;;
36653;SDS011;22650;49.350;20.898;2023-12-04T03:51:53;301.48;;;281.58;;
36653;SDS011;22650;49.350;20.898;2023-12-04T03:54:27;218.63;;;200.00;;
36653;SDS011;22650;49.350;20.898;2023-12-04T03:57:02;250.13;;;234.48;;
36653;SDS011;22650;49.350;20.898;2023-12-04T03:59:36;153.07;;;141.98;;
36653;SDS011;22650;49.350;20.898;2023-12-04T04:02:10;172.50;;;162.20;;
36653;SDS011;22650;49.350;20.898;2023-12-04T04:04:43;224.73;;;209.93;;
36653;SDS011;22650;49.350;20.898;2023-12-04T04:07:17;183.20;;;171.65;;
36653;SDS011;22650;49.350;20.898;2023-12-04T04:09:50;217.63;;;204.43;;
36653;SDS011;22650;49.350;20.898;2023-12-04T04:12:25;226.32;;;213.02;;
36653;SDS011;22650;49.350;20.898;2023-12-04T04:14:59;227.38;;;212.68;;
36653;SDS011;22650;49.350;20.898;2023-12-04T04:17:34;210.52;;;197.65;;
36653;SDS011;22650;49.350;20.898;2023-12-04T04:20:08;245.57;;;229.98;;
36653;SDS011;22650;49.350;20.898;2023-12-04T04:22:43;210.23;;;196.82;;
36653;SDS011;22650;49.350;20.898;2023-12-04T04:25:18;212.10;;;199.98;;
36653;SDS011;22650;49.350;20.898;2023-12-04T04:27:54;259.48;;;242.32;;
36653;SDS011;22650;49.350;20.898;2023-12-04T04:30:28;265.38;;;248.00;;
36653;SDS011;22650;49.350;20.898;2023-12-04T04:33:02;356.58;;;333.50;;
36653;SDS011;22650;49.350;20.898;2023-12-04T04:35:36;298.80;;;279.80;;
36653;SDS011;22650;49.350;20.898;2023-12-04T04:38:10;323.23;;;302.88;;
36653;SDS011;22650;49.350;20.898;2023-12-04T04:40:43;340.48;;;318.95;;
36653;SDS011;22650;49.350;20.898;2023-12-04T04:43:18;585.25;;;547.20;;
36653;SDS011;22650;49.350;20.898;2023-12-04T04:45:52;521.78;;;488.15;;
36653;SDS011;22650;49.350;20.898;2023-12-04T04:48:26;528.85;;;495.90;;
36653;SDS011;22650;49.350;20.898;2023-12-04T04:51:00;535.28;;;502.42;;
36653;SDS011;22650;49.350;20.898;2023-12-04T04:53:33;523.25;;;491.48;;
36653;SDS011;22650;49.350;20.898;2023-12-04T04:56:08;488.00;;;457.15;;
36653;SDS011;22650;49.350;20.898;2023-12-04T04:58:43;334.13;;;313.92;;
36653;SDS011;22650;49.350;20.898;2023-12-04T05:01:23;407.38;;;381.80;;
36653;SDS011;22650;49.350;20.898;2023-12-04T05:03:57;392.30;;;369.38;;
36653;SDS011;22650;49.350;20.898;2023-12-04T05:06:31;253.63;;;238.82;;
36653;SDS011;22650;49.350;20.898;2023-12-04T05:09:05;343.23;;;323.25;;
36653;SDS011;22650;49.350;20.898;2023-12-04T05:11:39;315.38;;;296.52;;
36653;SDS011;22650;49.350;20.898;2023-12-04T05:14:14;292.83;;;276.13;;
36653;SDS011;22650;49.350;20.898;2023-12-04T05:16:47;374.95;;;352.23;;
36653;SDS011;22650;49.350;20.898;2023-12-04T05:19:21;307.73;;;289.02;;
36653;SDS011;22650;49.350;20.898;2023-12-04T05:21:55;415.75;;;390.23;;
36653;SDS011;22650;49.350;20.898;2023-12-04T05:24:28;414.70;;;390.45;;
36653;SDS011;22650;49.350;20.898;2023-12-04T05:27:02;312.00;;;294.45;;
36653;SDS011;22650;49.350;20.898;2023-12-04T05:29:37;310.85;;;292.58;;
36653;SDS011;22650;49.350;20.898;2023-12-04T05:32:11;213.38;;;200.57;;
36653;SDS011;22650;49.350;20.898;2023-12-04T05:34:44;222.90;;;208.73;;
36653;SDS011;22650;49.350;20.898;2023-12-04T05:37:19;233.18;;;219.27;;
36653;SDS011;22650;49.350;20.898;2023-12-04T05:39:52;164.05;;;155.20;;
36653;SDS011;22650;49.350;20.898;2023-12-04T05:42:26;215.23;;;203.07;;
36653;SDS011;22650;49.350;20.898;2023-12-04T05:45:01;357.70;;;334.73;;
36653;SDS011;22650;49.350;20.898;2023-12-04T05:47:35;249.27;;;234.15;;
36653;SDS011;22650;49.350;20.898;2023-12-04T05:50:09;302.67;;;284.08;;
36653;SDS011;22650;49.350;20.898;2023-12-04T05:52:44;256.08;;;241.25;;
36653;SDS011;22650;49.350;20.898;2023-12-04T05:55:17;238.95;;;224.40;;
36653;SDS011;22650;49.350;20.898;2023-12-04T05:57:52;262.38;;;247.63;;
36653;SDS011;22650;49.350;20.898;2023-12-04T06:00:27;249.80;;;234.65;;
36653;SDS011;22650;49.350;20.898;2023-12-04T06:03:00;301.90;;;284.45;;
36653;SDS011;22650;49.350;20.898;2023-12-04T06:05:34;262.60;;;247.23;;
36653;SDS011;22650;49.350;20.898;2023-12-04T06:08:08;255.52;;;240.85;;
36653;SDS011;22650;49.350;20.898;2023-12-04T06:10:41;255.00;;;240.05;;
36653;SDS011;22650;49.350;20.898;2023-12-04T06:13:15;305.77;;;288.67;;
36653;SDS011;22650;49.350;20.898;2023-12-04T06:15:50;446.05;;;416.83;;
36653;SDS011;22650;49.350;20.898;2023-12-04T06:18:24;257.05;;;241.68;;
36653;SDS011;22650;49.350;20.898;2023-12-04T06:21:00;353.67;;;331.52;;
36653;SDS011;22650;49.350;20.898;2023-12-04T06:23:34;340.65;;;320.20;;
36653;SDS011;22650;49.350;20.898;2023-12-04T06:26:08;245.02;;;231.20;;
36653;SDS011;22650;49.350;20.898;2023-12-04T06:28:44;252.18;;;236.90;;
36653;SDS011;22650;49.350;20.898;2023-12-04T06:31:20;206.48;;;194.05;;
36653;SDS011;22650;49.350;20.898;2023-12-04T06:33:54;209.18;;;197.15;;
36653;SDS011;22650;49.350;20.898;2023-12-04T06:36:28;230.93;;;217.32;;
36653;SDS011;22650;49.350;20.898;2023-12-04T06:39:09;206.68;;;194.07;;
36653;SDS011;22650;49.350;20.898;2023-12-04T06:41:44;201.57;;;189.75;;
36653;SDS011;22650;49.350;20.898;2023-12-04T06:44:20;389.73;;;361.42;;
36653;SDS011;22650;49.350;20.898;2023-12-04T06:46:55;306.70;;;286.95;;
36653;SDS011;22650;49.350;20.898;2023-12-04T06:49:33;239.32;;;225.55;;
36653;SDS011;22650;49.350;20.898;2023-12-04T06:52:07;193.73;;;182.55;;
36653;SDS011;22650;49.350;20.898;2023-12-04T06:54:41;164.38;;;155.02;;
36653;SDS011;22650;49.350;20.898;2023-12-04T06:57:14;222.57;;;209.60;;
36653;SDS011;22650;49.350;20.898;2023-12-04T06:59:48;208.90;;;197.00;;
36653;SDS011;22650;49.350;20.898;2023-12-04T07:02:23;213.43;;;198.93;;
36653;SDS011;22650;49.350;20.898;2023-12-04T07:04:57;221.10;;;208.25;;
36653;SDS011;22650;49.350;20.898;2023-12-04T07:07:31;191.95;;;180.02;;
36653;SDS011;22650;49.350;20.898;2023-12-04T07:10:05;185.52;;;174.88;;
36653;SDS011;22650;49.350;20.898;2023-12-04T07:12:40;158.57;;;148.93;;
36653;SDS011;22650;49.350;20.898;2023-12-04T07:15:14;225.98;;;212.18;;
36653;SDS011;22650;49.350;20.898;2023-12-04T07:17:50;374.13;;;351.88;;
36653;SDS011;22650;49.350;20.898;2023-12-04T07:20:27;336.95;;;316.38;;
36653;SDS011;22650;49.350;20.898;2023-12-04T07:23:00;391.50;;;368.42;;
36653;SDS011;22650;49.350;20.898;2023-12-04T07:25:34;367.40;;;344.98;;
36653;SDS011;22650;49.350;20.898;2023-12-04T07:28:08;481.08;;;451.42;;
36653;SDS011;22650;49.350;20.898;2023-12-04T07:30:41;336.25;;;315.95;;
36653;SDS011;22650;49.350;20.898;2023-12-04T07:33:16;378.48;;;355.23;;
36653;SDS011;22650;49.350;20.898;2023-12-04T07:35:50;456.98;;;428.90;;
36653;SDS011;22650;49.350;20.898;2023-12-04T07:38:24;398.85;;;375.33;;
36653;SDS011;22650;49.350;20.898;2023-12-04T07:41:00;568.97;;;531.53;;
36653;SDS011;22650;49.350;20.898;2023-12-04T07:43:33;594.95;;;556.95;;
36653;SDS011;22650;49.350;20.898;2023-12-04T07:46:08;467.02;;;438.83;;
36653;SDS011;22650;49.350;20.898;2023-12-04T07:48:44;478.98;;;449.73;;
36653;SDS011;22650;49.350;20.898;2023-12-04T07:51:18;534.90;;;500.40;;
36653;SDS011;22650;49.350;20.898;2023-12-04T07:53:52;625.05;;;580.35;;
36653;SDS011;22650;49.350;20.898;2023-12-04T07:56:26;604.28;;;564.22;;
36653;SDS011;22650;49.350;20.898;2023-12-04T07:58:59;580.55;;;542.88;;
36653;SDS011;22650;49.350;20.898;2023-12-04T08:01:33;559.38;;;522.63;;
36653;SDS011;22650;49.350;20.898;2023-12-04T08:04:08;526.63;;;492.75;;
36653;SDS011;22650;49.350;20.898;2023-12-04T08:06:42;525.15;;;491.33;;
36653;SDS011;22650;49.350;20.898;2023-12-04T08:09:16;516.35;;;483.02;;
36653;SDS011;22650;49.350;20.898;2023-12-04T08:11:49;542.67;;;506.80;;
36653;SDS011;22650;49.350;20.898;2023-12-04T08:14:25;492.05;;;460.27;;
36653;SDS011;22650;49.350;20.898;2023-12-04T08:16:59;539.47;;;502.65;;
36653;SDS011;22650;49.350;20.898;2023-12-04T08:19:34;508.38;;;474.77;;
36653;SDS011;22650;49.350;20.898;2023-12-04T08:22:09;563.00;;;526.10;;
36653;SDS011;22650;49.350;20.898;2023-12-04T08:24:43;576.47;;;537.05;;
36653;SDS011;22650;49.350;20.898;2023-12-04T08:27:16;536.72;;;502.52;;
36653;SDS011;22650;49.350;20.898;2023-12-04T08:29:50;571.13;;;533.70;;
36653;SDS011;22650;49.350;20.898;2023-12-04T08:32:24;632.90;;;589.55;;
36653;SDS011;22650;49.350;20.898;2023-12-04T08:35:00;638.47;;;592.60;;
36653;SDS011;22650;49.350;20.898;2023-12-04T08:37:35;657.83;;;611.05;;
36653;SDS011;22650;49.350;20.898;2023-12-04T08:40:09;551.10;;;511.92;;
36653;SDS011;22650;49.350;20.898;2023-12-04T08:42:43;620.15;;;575.00;;
36653;SDS011;22650;49.350;20.898;2023-12-04T08:45:17;544.30;;;505.55;;
36653;SDS011;22650;49.350;20.898;2023-12-04T08:47:50;698.92;;;648.10;;
36653;SDS011;22650;49.350;20.898;2023-12-04T08:50:26;703.45;;;650.88;;
36653;SDS011;22650;49.350;20.898;2023-12-04T08:53:02;769.10;;;712.33;;
36653;SDS011;22650;49.350;20.898;2023-12-04T08:55:36;788.80;;;730.17;;
36653;SDS011;22650;49.350;20.898;2023-12-04T08:58:09;903.75;;;832.95;;
36653;SDS011;22650;49.350;20.898;2023-12-04T09:00:43;882.67;;;813.60;;
36653;SDS011;22650;49.350;20.898;2023-12-04T09:03:17;903.75;;;829.15;;
36653;SDS011;22650;49.350;20.898;2023-12-04T09:06:04;879.55;;;809.55;;
36653;SDS011;22650;49.350;20.898;2023-12-04T09:08:38;896.13;;;821.75;;
36653;SDS011;22650;49.350;20.898;2023-12-04T09:11:22;890.58;;;819.17;;
36653;SDS011;22650;49.350;20.898;2023-12-04T09:13:56;933.53;;;854.50;;
36653;SDS011;22650;49.350;20.898;2023-12-04T09:16:30;986.92;;;897.65;;
36653;SDS011;22650;49.350;20.898;2023-12-04T09:19:04;1052.88;;;947.20;;
36653;SDS011;22650;49.350;20.898;2023-12-04T09:21:39;1051.60;;;947.83;;
36653;SDS011;22650;49.350;20.898;2023-12-04T09:24:13;1107.97;;;993.78;;
36653;SDS011;22650;49.350;20.898;2023-12-04T09:26:47;1140.35;;;999.90;;
36653;SDS011;22650;49.350;20.898;2023-12-04T09:29:20;1150.47;;;999.90;;
36653;SDS011;22650;49.350;20.898;2023-12-04T09:31:56;1100.78;;;994.33;;
36653;SDS011;22650;49.350;20.898;2023-12-04T09:34:30;1102.80;;;987.50;;
36653;SDS011;22650;49.350;20.898;2023-12-04T09:37:05;1093.55;;;990.40;;
36653;SDS011;22650;49.350;20.898;2023-12-04T09:39:43;1101.00;;;990.53;;
36653;SDS011;22650;49.350;20.898;2023-12-04T09:42:17;1097.13;;;990.45;;
36653;SDS011;22650;49.350;20.898;2023-12-04T09:44:51;1138.50;;;999.90;;
36653;SDS011;22650;49.350;20.898;2023-12-04T09:47:26;1093.43;;;989.78;;
36653;SDS011;22650;49.350;20.898;2023-12-04T09:49:59;1183.80;;;999.90;;
36653;SDS011;22650;49.350;20.898;2023-12-04T09:52:35;1142.38;;;999.90;;
36653;SDS011;22650;49.350;20.898;2023-12-04T09:55:09;1205.65;;;999.90;;
36653;SDS011;22650;49.350;20.898;2023-12-04T09:57:42;1233.35;;;999.90;;
36653;SDS011;22650;49.350;20.898;2023-12-04T10:00:18;1184.00;;;999.90;;
36653;SDS011;22650;49.350;20.898;2023-12-04T10:02:53;1184.03;;;999.90;;
36653;SDS011;22650;49.350;20.898;2023-12-04T10:05:28;1209.97;;;999.90;;
36653;SDS011;22650;49.350;20.898;2023-12-04T10:08:04;1191.60;;;999.90;;
36653;SDS011;22650;49.350;20.898;2023-12-04T10:10:37;1201.22;;;999.90;;
36653;SDS011;22650;49.350;20.898;2023-12-04T10:13:11;1209.40;;;999.90;;
36653;SDS011;22650;49.350;20.898;2023-12-04T10:16:07;1173.20;;;999.90;;
36653;SDS011;22650;49.350;20.898;2023-12-04T10:18:41;1158.63;;;999.90;;
36653;SDS011;22650;49.350;20.898;2023-12-04T10:21:15;1186.75;;;999.90;;
36653;SDS011;22650;49.350;20.898;2023-12-04T10:23:54;1180.85;;;999.90;;
36653;SDS011;22650;49.350;20.898;2023-12-04T10:26:28;1187.75;;;999.90;;
36653;SDS011;22650;49.350;20.898;2023-12-04T10:29:02;1156.68;;;999.90;;
36653;SDS011;22650;49.350;20.898;2023-12-04T10:31:37;1147.15;;;999.90;;
36653;SDS011;22650;49.350;20.898;2023-12-04T10:34:10;1165.50;;;999.90;;
36653;SDS011;22650;49.350;20.898;2023-12-04T10:36:44;1158.25;;;999.90;;
36653;SDS011;22650;49.350;20.898;2023-12-04T10:39:20;1175.68;;;999.90;;
36653;SDS011;22650;49.350;20.898;2023-12-04T10:42:00;1194.25;;;999.90;;
36653;SDS011;22650;49.350;20.898;2023-12-04T10:44:35;1142.45;;;999.90;;
36653;SDS011;22650;49.350;20.898;2023-12-04T10:47:08;1145.82;;;999.90;;
36653;SDS011;22650;49.350;20.898;2023-12-04T10:49:42;1167.00;;;999.90;;
36653;SDS011;22650;49.350;20.898;2023-12-04T10:52:17;1163.53;;;999.90;;
36653;SDS011;22650;49.350;20.898;2023-12-04T10:54:53;1174.00;;;999.90;;
36653;SDS011;22650;49.350;20.898;2023-12-04T10:57:31;1125.93;;;999.90;;
36653;SDS011;22650;49.350;20.898;2023-12-04T11:00:12;1117.93;;;998.33;;
36653;SDS011;22650;49.350;20.898;2023-12-04T11:02:48;1130.07;;;999.90;;
36653;SDS011;22650;49.350;20.898;2023-12-04T11:05:24;1134.95;;;999.90;;
36653;SDS011;22650;49.350;20.898;2023-12-04T11:08:00;1140.88;;;999.90;;
36653;SDS011;22650;49.350;20.898;2023-12-04T11:10:50;1134.68;;;999.90;;
36653;SDS011;22650;49.350;20.898;2023-12-04T11:13:29;1147.45;;;999.90;;
36653;SDS011;22650;49.350;20.898;2023-12-04T11:16:06;1141.60;;;999.90;;
36653;SDS011;22650;49.350;20.898;2023-12-04T11:18:47;1108.55;;;997.60;;
36653;SDS011;22650;49.350;20.898;2023-12-04T11:21:26;1093.22;;;986.60;;
36653;SDS011;22650;49.350;20.898;2023-12-04T11:24:02;1129.13;;;999.90;;
36653;SDS011;22650;49.350;20.898;2023-12-04T11:26:39;1104.22;;;992.72;;
36653;SDS011;22650;49.350;20.898;2023-12-04T11:29:13;1105.95;;;996.50;;
36653;SDS011;22650;49.350;20.898;2023-12-04T11:31:48;1116.32;;;999.33;;
36653;SDS011;22650;49.350;20.898;2023-12-04T11:34:22;1118.70;;;999.90;;
36653;SDS011;22650;49.350;20.898;2023-12-04T11:36:57;1109.13;;;998.70;;
36653;SDS011;22650;49.350;20.898;2023-12-04T11:39:33;1113.80;;;999.63;;
36653;SDS011;22650;49.350;20.898;2023-12-04T11:42:10;1098.63;;;993.53;;
36653;SDS011;22650;49.350;20.898;2023-12-04T11:44:44;1110.07;;;998.97;;
36653;SDS011;22650;49.350;20.898;2023-12-04T11:47:20;1093.20;;;989.05;;
36653;SDS011;22650;49.350;20.898;2023-12-04T11:49:54;1075.05;;;972.47;;
36653;SDS011;22650;49.350;20.898;2023-12-04T11:52:34;1116.13;;;998.78;;
36653;SDS011;22650;49.350;20.898;2023-12-04T11:55:07;1100.15;;;992.45;;
36653;SDS011;22650;49.350;20.898;2023-12-04T11:57:43;1086.63;;;980.60;;
36653;SDS011;22650;49.350;20.898;2023-12-04T12:00:20;1094.28;;;989.90;;
36653;SDS011;22650;49.350;20.898;2023-12-04T12:03:03;1089.93;;;982.03;;
36653;SDS011;22650;49.350;20.898;2023-12-04T12:05:53;1074.15;;;972.13;;
36653;SDS011;22650;49.350;20.898;2023-12-04T12:08:28;1072.40;;;975.13;;
36653;SDS011;22650;49.350;20.898;2023-12-04T12:11:02;1119.18;;;999.90;;
36653;SDS011;22650;49.350;20.898;2023-12-04T12:13:41;1116.68;;;999.90;;
36653;SDS011;22650;49.350;20.898;2023-12-04T12:16:15;1106.40;;;999.42;;
36653;SDS011;22650;49.350;20.898;2023-12-04T12:18:52;1121.03;;;999.90;;
36653;SDS011;22650;49.350;20.898;2023-12-04T12:21:25;1121.00;;;999.90;;
36653;SDS011;22650;49.350;20.898;2023-12-04T12:24:00;1099.88;;;992.85;;
36653;SDS011;22650;49.350;20.898;2023-12-04T12:26:34;1093.20;;;987.70;;
36653;SDS011;22650;49.350;20.898;2023-12-04T12:29:10;1109.57;;;998.47;;
36653;SDS011;22650;49.350;20.898;2023-12-04T12:31:43;1116.55;;;999.20;;
36653;SDS011;22650;49.350;20.898;2023-12-04T12:34:19;1119.45;;;999.90;;
36653;SDS011;22650;49.350;20.898;2023-12-04T12:36:53;1113.88;;;999.90;;
36653;SDS011;22650;49.350;20.898;2023-12-04T12:39:26;1080.50;;;972.28;;
36653;SDS011;22650;49.350;20.898;2023-12-04T12:42:01;1087.53;;;984.00;;
36653;SDS011;22650;49.350;20.898;2023-12-04T12:44:38;1098.32;;;992.50;;
36653;SDS011;22650;49.350;20.898;2023-12-04T12:47:14;1108.97;;;999.53;;
36653;SDS011;22650;49.350;20.898;2023-12-04T12:49:48;1068.20;;;966.92;;
36653;SDS011;22650;49.350;20.898;2023-12-04T12:52:21;1094.00;;;990.42;;
36653;SDS011;22650;49.350;20.898;2023-12-04T12:54:55;1051.00;;;954.35;;
36653;SDS011;22650;49.350;20.898;2023-12-04T12:57:29;1076.50;;;976.33;;
36653;SDS011;22650;49.350;20.898;2023-12-04T13:00:06;1053.30;;;955.40;;
36653;SDS011;22650;49.350;20.898;2023-12-04T13:02:40;1034.55;;;941.50;;
36653;SDS011;22650;49.350;20.898;2023-12-04T13:05:14;1038.55;;;945.10;;
36653;SDS011;22650;49.350;20.898;2023-12-04T13:07:49;1029.15;;;934.08;;
36653;SDS011;22650;49.350;20.898;2023-12-04T13:10:23;1101.15;;;988.60;;
36653;SDS011;22650;49.350;20.898;2023-12-04T13:12:57;1074.80;;;973.03;;
36653;SDS011;22650;49.350;20.898;2023-12-04T13:15:33;1040.35;;;944.80;;
36653;SDS011;22650;49.350;20.898;2023-12-04T13:18:06;1012.83;;;920.33;;
36653;SDS011;22650;49.350;20.898;2023-12-04T13:20:40;1017.95;;;928.10;;
36653;SDS011;22650;49.350;20.898;2023-12-04T13:23:15;1053.88;;;957.97;;
36653;SDS011;22650;49.350;20.898;2023-12-04T13:25:48;1071.85;;;976.80;;
36653;SDS011;22650;49.350;20.898;2023-12-04T13:28:22;1065.40;;;968.30;;
36653;SDS011;22650;49.350;20.898;2023-12-04T13:31:08;1042.65;;;948.38;;
36653;SDS011;22650;49.350;20.898;2023-12-04T13:33:42;1038.78;;;948.63;;
36653;SDS011;22650;49.350;20.898;2023-12-04T13:36:18;1025.30;;;934.33;;
36653;SDS011;22650;49.350;20.898;2023-12-04T13:38:51;1006.78;;;918.47;;
36653;SDS011;22650;49.350;20.898;2023-12-04T13:41:25;988.25;;;903.65;;
36653;SDS011;22650;49.350;20.898;2023-12-04T13:44:16;977.97;;;893.45;;
36653;SDS011;22650;49.350;20.898;2023-12-04T13:46:51;981.13;;;897.78;;
36653;SDS011;22650;49.350;20.898;2023-12-04T13:49:25;999.47;;;913.85;;
36653;SDS011;22650;49.350;20.898;2023-12-04T13:51:59;951.53;;;872.50;;
36653;SDS011;22650;49.350;20.898;2023-12-04T13:54:35;918.08;;;844.35;;
36653;SDS011;22650;49.350;20.898;2023-12-04T13:57:16;920.83;;;847.20;;
36653;SDS011;22650;49.350;20.898;2023-12-04T13:59:52;824.42;;;760.90;;
36653;SDS011;22650;49.350;20.898;2023-12-04T14:02:28;809.22;;;750.08;;
36653;SDS011;22650;49.350;20.898;2023-12-04T14:05:02;814.60;;;754.65;;
36653;SDS011;22650;49.350;20.898;2023-12-04T14:07:36;789.40;;;731.25;;
36653;SDS011;22650;49.350;20.898;2023-12-04T14:10:12;798.97;;;739.88;;
36653;SDS011;22650;49.350;20.898;2023-12-04T14:12:46;801.95;;;741.80;;
36653;SDS011;22650;49.350;20.898;2023-12-04T14:15:20;801.58;;;739.67;;
36653;SDS011;22650;49.350;20.898;2023-12-04T14:17:55;712.72;;;659.95;;
36653;SDS011;22650;49.350;20.898;2023-12-04T14:20:28;745.20;;;689.92;;
36653;SDS011;22650;49.350;20.898;2023-12-04T14:23:02;698.53;;;646.88;;